Time;durP1;ratioP1;P1;durP2;ratioP2;P2;SDS_P1;SDS_P2;PMS_P1;PMS_P2;Temp;Humidity;BMP_temperature;BMP_pressure;BME280_temperature;BME280_humidity;BME280_pressure;Samples;Min_cycle;Max_cycle;Signal;HPM_P1;HPM_P2
2022/04/30 00:01:16;;;;;;;10.38;6.68;;;;;;;4.95;100.00;161861.28;5033975;28;20041;-52
2022/04/30 00:03:42;;;;;;;16.92;7.18;;;;;;;4.92;100.00;161853.19;5034520;28;20393;-53
2022/04/30 00:06:08;;;;;;;13.00;6.10;;;;;;;4.86;100.00;161837.06;5033118;28;20037;-53
2022/04/30 00:08:33;;;;;;;9.88;7.28;;;;;;;4.84;100.00;161831.69;5034419;28;20477;-53
2022/04/30 00:10:58;;;;;;;11.75;7.13;;;;;;;4.83;100.00;161828.97;5034847;28;20475;-53
2022/04/30 00:13:24;;;;;;;13.68;8.75;;;;;;;4.81;100.00;161823.59;5034123;28;20420;-53
2022/04/30 00:15:50;;;;;;;11.07;7.97;;;;;;;4.76;100.00;161812.84;5033593;28;20025;-53
2022/04/30 00:18:15;;;;;;;11.00;6.88;;;;;;;4.78;100.00;161815.56;5034822;28;20075;-52
2022/04/30 00:20:45;;;;;;;9.07;7.50;;;;;;;4.69;100.00;161794.03;5032473;28;20376;-53
2022/04/30 00:23:19;;;;;;;9.00;6.18;;;;;;;4.69;100.00;161794.03;5034838;28;20030;-52
2022/04/30 00:25:48;;;;;;;9.93;7.35;;;;;;;4.66;100.00;161784.63;5033487;28;20021;-53
2022/04/30 00:28:14;;;;;;;14.02;7.97;;;;;;;4.62;100.00;161775.22;5034652;28;20022;-53
2022/04/30 00:30:41;;;;;;;8.73;6.30;;;;;;;4.56;100.00;161759.09;5033196;28;20073;-53
2022/04/30 00:33:09;;;;;;;9.75;7.10;;;;;;;4.51;100.00;161745.59;5035612;28;20032;-52
2022/04/30 00:35:36;;;;;;;13.93;7.72;;;;;;;4.45;100.00;161732.19;5032713;28;20021;-49
2022/04/30 00:38:01;;;;;;;12.05;7.32;;;;;;;4.41;100.00;161720.06;5035476;28;20071;-53
2022/04/30 00:40:27;;;;;;;9.00;7.38;;;;;;;4.37;100.00;161710.66;5034561;28;20022;-53
2022/04/30 00:42:52;;;;;;;11.13;7.85;;;;;;;4.26;100.00;161681.13;5032775;28;20037;-52
2022/04/30 00:45:17;;;;;;;11.52;8.13;;;;;;;4.31;100.00;161693.22;5033989;28;20389;-53
2022/04/30 00:47:43;;;;;;;12.30;7.13;;;;;;;4.25;100.00;161678.41;5032583;28;20041;-53
2022/04/30 00:50:15;;;;;;;11.75;8.70;;;;;;;4.21;100.00;161667.63;5034332;28;20461;-53
2022/04/30 00:52:43;;;;;;;13.90;7.40;;;;;;;4.20;100.00;161665.00;5032452;28;20045;-54
2022/04/30 00:55:08;;;;;;;8.65;7.13;;;;;;;4.12;100.00;161644.81;5033888;28;20068;-53
2022/04/30 00:57:36;;;;;;;9.38;7.47;;;;;;;4.19;100.00;161662.31;5031963;28;20404;-54
2022/04/30 01:00:04;;;;;;;12.03;8.33;;;;;;;4.18;100.00;161659.59;5033861;28;20028;-52
2022/04/30 01:02:32;;;;;;;11.60;8.27;;;;;;;4.13;100.00;161648.81;5031919;28;20413;-53
2022/04/30 01:04:58;;;;;;;8.95;7.90;;;;;;;4.12;100.00;161646.19;5033151;28;20021;-53
2022/04/30 01:07:24;;;;;;;15.60;9.18;;;;;;;4.12;100.00;161646.19;5030775;28;20086;-52
2022/04/30 01:09:52;;;;;;;11.52;8.13;;;;;;;4.12;100.00;161646.19;5033405;28;20034;-53
2022/04/30 01:12:18;;;;;;;12.02;8.73;;;;;;;4.13;100.00;161648.81;5031448;28;20125;-51
2022/04/30 01:14:45;;;;;;;13.70;8.80;;;;;;;4.07;100.00;161632.69;5033002;28;20029;-53
2022/04/30 01:17:11;;;;;;;21.13;9.52;;;;;;;4.07;100.00;161632.69;5031933;28;20048;-53
2022/04/30 01:19:40;;;;;;;14.57;9.85;;;;;;;4.03;100.00;161621.97;5032888;28;20112;-52
2022/04/30 01:22:21;;;;;;;11.30;9.55;;;;;;;4.01;100.00;161616.59;5031702;28;20413;-52
2022/04/30 01:24:48;;;;;;;9.75;8.40;;;;;;;3.98;100.00;161608.53;5032802;28;20163;-52
2022/04/30 01:27:14;;;;;;;11.38;8.80;;;;;;;3.99;100.00;161611.19;5031246;28;20064;-52
2022/04/30 01:29:39;;;;;;;16.63;10.13;;;;;;;3.97;100.00;161605.84;5032929;28;20033;-52
2022/04/30 01:37:36;;;;;;;14.23;9.63;;;;;;;3.81;100.00;161565.53;5031279;28;20048;-52
2022/04/30 01:40:04;;;;;;;;;;;;;;;3.72;100.00;161541.34;5033824;28;20481;-53
2022/04/30 01:42:34;;;;;;;14.10;9.60;;;;;;;3.61;100.00;161511.81;5030668;28;19913;-53
2022/04/30 01:44:59;;;;;;;14.75;10.82;;;;;;;3.51;100.00;161484.91;5032669;28;20025;-52
2022/04/30 01:47:25;;;;;;;19.48;10.63;;;;;;;3.53;100.00;161490.31;5030993;28;20523;-53
2022/04/30 01:49:51;;;;;;;14.50;10.55;;;;;;;3.47;100.00;161476.84;5032438;28;20105;-52
2022/04/30 01:52:17;;;;;;;18.98;12.38;;;;;;;3.51;100.00;161484.91;5031228;28;20666;-53
2022/04/30 01:54:43;;;;;;;17.35;12.18;;;;;;;3.51;100.00;161484.91;5032563;28;20408;-53
2022/04/30 01:57:08;;;;;;;18.10;11.38;;;;;;;3.53;100.00;161491.63;5030838;28;20041;-52
2022/04/30 01:59:34;;;;;;;11.23;9.20;;;;;;;3.55;100.00;161497.00;5032417;28;20017;-53
2022/04/30 02:02:00;;;;;;;19.55;10.63;;;;;;;3.59;100.00;161506.41;5031038;28;20111;-52
2022/04/30 02:04:27;;;;;;;20.77;12.05;;;;;;;3.58;100.00;161503.72;5031705;28;20040;-53
2022/04/30 02:06:54;;;;;;;15.90;10.50;;;;;;;3.58;100.00;161503.72;5030874;28;20071;-52
2022/04/30 02:09:20;;;;;;;15.70;11.73;;;;;;;3.53;100.00;161491.63;5032038;28;20022;-53
2022/04/30 02:11:47;;;;;;;20.98;12.57;;;;;;;3.52;100.00;161487.59;5030213;28;20090;-52
2022/04/30 02:14:14;;;;;;;17.73;12.35;;;;;;;3.41;100.00;161460.72;5031865;28;20044;-53
2022/04/30 02:16:40;;;;;;;15.77;11.40;;;;;;;3.48;100.00;161478.22;5030572;28;20067;-53
2022/04/30 02:19:07;;;;;;;13.73;11.30;;;;;;;3.30;100.00;161431.19;5031423;28;20408;-53
2022/04/30 02:21:32;;;;;;;13.52;10.30;;;;;;;3.39;100.00;161454.00;5030327;28;20485;-54
2022/04/30 02:23:59;;;;;;;17.55;11.10;;;;;;;3.29;100.00;161428.50;5032054;28;20033;-51
2022/04/30 02:26:27;;;;;;;14.27;11.32;;;;;;;3.13;100.00;161386.81;5030091;28;20037;-52
2022/04/30 02:28:54;;;;;;;14.50;11.73;;;;;;;2.99;100.00;161350.59;5031825;28;20469;-52
2022/04/30 02:31:22;;;;;;;16.33;12.15;;;;;;;2.84;100.00;161311.63;5030515;28;20076;-53
2022/04/30 02:33:47;;;;;;;23.40;11.73;;;;;;;2.74;100.00;161286.13;5031261;28;20116;-53
2022/04/30 02:36:15;;;;;;;16.45;12.30;;;;;;;2.63;100.00;161257.94;5030576;28;20128;-53
2022/04/30 02:38:43;;;;;;;12.32;11.07;;;;;;;2.52;100.00;161229.75;5031895;28;20021;-53
2022/04/30 02:41:09;;;;;;;17.55;10.65;;;;;;;2.43;100.00;161205.56;5029940;28;20045;-53
2022/04/30 02:43:34;;;;;;;15.02;11.77;;;;;;;2.34;100.00;161181.44;5031519;28;20065;-53
2022/04/30 02:45:59;;;;;;;12.20;10.68;;;;;;;2.23;100.00;161153.25;5030338;28;20045;-53
2022/04/30 02:48:26;;;;;;;23.25;13.23;;;;;;;2.14;100.00;161130.41;5030869;28;20025;-54
2022/04/30 02:50:55;;;;;;;15.93;11.70;;;;;;;2.06;100.00;161108.91;5028794;28;20449;-53
2022/04/30 02:53:20;;;;;;;19.70;11.93;;;;;;;2.00;100.00;161092.81;5031536;28;20021;-51
2022/04/30 02:55:45;;;;;;;16.02;11.15;;;;;;;1.95;100.00;161079.41;5029567;28;20032;-52
2022/04/30 03:00:54;;;;;;;26.05;13.20;;;;;;;1.85;100.00;161053.94;5030018;28;20048;-53
2022/04/30 03:03:21;;;;;;;13.88;10.65;;;;;;;1.75;100.00;161028.38;5030970;28;20392;-53
2022/04/30 03:05:52;;;;;;;16.05;11.23;;;;;;;1.66;100.00;161004.28;5029920;28;20037;-52
2022/04/30 03:08:21;;;;;;;17.70;11.38;;;;;;;1.56;100.00;160978.81;5031535;28;20142;-52
2022/04/30 03:10:48;;;;;;;13.75;11.65;;;;;;;1.50;100.00;160962.66;5029205;28;20555;-53
2022/04/30 03:13:14;;;;;;;16.35;11.90;;;;;;;1.42;100.00;160942.56;5031619;28;20063;-52
2022/04/30 03:15:43;;;;;;;15.07;10.77;;;;;;;1.35;100.00;160923.78;5029380;28;20380;-53
2022/04/30 03:23:38;;;;;;;12.40;9.65;;;;;;;1.17;100.00;160878.16;5031088;28;20082;-53
2022/04/30 03:26:05;;;;;;;18.02;12.25;;;;;;;1.16;100.00;160875.47;5029251;28;20061;-53
2022/04/30 03:28:30;;;;;;;24.15;13.48;;;;;;;1.13;100.00;160867.44;5030971;28;20044;-52
2022/04/30 03:30:56;;;;;;;19.42;13.93;;;;;;;1.15;100.00;160872.81;5031846;28;20489;-53
2022/04/30 03:33:21;;;;;;;26.05;15.63;;;;;;;1.20;100.00;160886.22;5037398;28;20040;-53
2022/04/30 03:35:46;;;;;;;19.58;14.73;;;;;;;1.24;100.00;160896.94;5036215;28;20022;-52
2022/04/30 03:38:13;;;;;;;18.30;13.50;;;;;;;1.27;100.00;160903.63;5037785;28;20464;-53
2022/04/30 03:40:39;;;;;;;18.63;13.85;;;;;;;1.33;100.00;160918.41;5035777;28;20411;-53
2022/04/30 03:43:04;;;;;;;22.90;14.30;;;;;;;1.36;100.00;160927.78;5037903;28;20014;-52
2022/04/30 03:45:30;;;;;;;20.90;14.30;;;;;;;1.38;100.00;160933.16;5035580;28;20052;-53
2022/04/30 03:47:55;;;;;;;17.98;14.13;;;;;;;1.41;100.00;160939.88;5037160;28;20025;-52
2022/04/30 03:50:21;;;;;;;21.95;13.02;;;;;;;1.48;100.00;160957.31;5037433;28;20021;-53
2022/04/30 03:52:46;;;;;;;20.80;14.65;;;;;;;1.51;100.00;160966.72;5035651;28;20061;-52
2022/04/30 03:55:14;;;;;;;16.50;13.70;;;;;;;1.56;100.00;160980.13;5037181;28;20029;-53
2022/04/30 03:57:39;;;;;;;25.00;17.90;;;;;;;1.68;100.00;161009.59;5035885;28;20391;-52
2022/04/30 04:00:06;;;;;;;25.02;18.90;;;;;;;1.77;100.00;161033.78;5037309;28;20029;-51
2022/04/30 04:02:32;;;;;;;48.13;21.30;;;;;;;1.92;100.00;161072.72;5035006;28;20054;-54
2022/04/30 04:04:58;;;;;;;20.63;16.90;;;;;;;1.95;100.00;161079.41;5037593;28;20025;-51
2022/04/30 04:07:23;;;;;;;32.10;19.33;;;;;;;2.18;100.00;161141.16;5035624;28;20042;-53
2022/04/30 04:09:49;;;;;;;26.60;17.80;;;;;;;2.20;100.00;161146.50;5036922;28;20029;-52
2022/04/30 04:12:14;;;;;;;28.90;18.63;;;;;;;2.32;100.00;161176.06;5035924;28;20444;-53
2022/04/30 04:17:38;;;;;;;19.88;14.30;;;;;;;2.30;100.00;161170.66;5035675;28;20128;-53
2022/04/30 04:20:19;;;;;;;23.42;15.85;;;;;;;2.20;100.00;161146.50;5037292;28;20099;-52
2022/04/30 04:22:45;;;;;;;28.20;15.73;;;;;;;2.14;100.00;161129.06;5035553;28;20413;-52
2022/04/30 04:27:55;;;;;;;25.23;14.85;;;;;;;1.97;100.00;161084.81;5035831;28;20052;-52
2022/04/30 04:30:22;;;;;;;21.42;13.95;;;;;;;1.93;100.00;161074.03;5037370;28;20017;-53
2022/04/30 04:32:47;;;;;;;17.50;12.88;;;;;;;1.80;100.00;161041.84;5033949;28;20505;-53
2022/04/30 04:35:14;;;;;;;23.48;13.07;;;;;;;1.71;100.00;161017.69;5037289;28;20037;-53
2022/04/30 04:37:40;;;;;;;16.15;13.82;;;;;;;1.62;100.00;160994.88;5035485;28;20120;-51
2022/04/30 04:40:07;;;;;;;22.98;14.88;;;;;;;1.58;100.00;160984.13;5036694;28;20108;-53
2022/04/30 04:42:33;;;;;;;17.45;13.60;;;;;;;1.54;100.00;160974.75;5027809;28;20461;-53
2022/04/30 04:44:58;;;;;;;22.55;16.35;;;;;;;1.49;100.00;160960.00;5023044;28;20079;-52
2022/04/30 04:47:23;;;;;;;15.75;12.43;;;;;;;1.51;100.00;160966.72;5022442;28;20401;-53
2022/04/30 04:49:49;;;;;;;22.55;15.60;;;;;;;1.54;100.00;160974.75;5022570;28;20022;-52
2022/04/30 04:52:14;;;;;;;27.55;13.52;;;;;;;1.62;100.00;160993.53;5022078;28;20029;-52
2022/04/30 04:54:40;;;;;;;19.75;13.65;;;;;;;1.65;100.00;161001.59;5023485;28;20028;-53
2022/04/30 04:57:05;;;;;;;18.20;14.13;;;;;;;1.70;100.00;161015.00;5020247;28;20099;-52
2022/04/30 04:59:31;;;;;;;23.85;15.52;;;;;;;1.76;100.00;161031.09;5022696;28;20381;-52
2022/04/30 05:01:56;;;;;;;23.95;15.15;;;;;;;1.80;100.00;161041.84;5021121;28;20111;-53
2022/04/30 05:04:23;;;;;;;17.20;14.50;;;;;;;1.85;100.00;161053.94;5023891;28;20470;-53
2022/04/30 05:06:48;;;;;;;19.02;13.23;;;;;;;1.89;100.00;161066.00;5020685;28;20037;-53
2022/04/30 05:09:14;;;;;;;19.00;15.27;;;;;;;1.98;100.00;161087.44;5022708;28;20087;-53
2022/04/30 05:11:39;;;;;;;20.17;13.07;;;;;;;2.06;100.00;161108.91;5019569;28;20033;-53
2022/04/30 05:14:04;;;;;;;19.92;14.95;;;;;;;2.17;100.00;161138.47;5023930;28;20033;-53
2022/04/30 05:16:30;;;;;;;16.73;13.43;;;;;;;2.26;100.00;161161.28;5025418;28;20041;-53
2022/04/30 05:18:55;;;;;;;19.63;15.43;;;;;;;2.37;100.00;161189.47;5032249;28;20083;-53
2022/04/30 05:21:21;;;;;;;14.18;12.77;;;;;;;2.49;100.00;161221.72;5031680;28;20507;-53
2022/04/30 05:23:46;;;;;;;22.30;15.48;;;;;;;2.58;100.00;161244.53;5032454;28;20033;-52
2022/04/30 05:26:13;;;;;;;20.25;15.32;;;;;;;2.67;100.00;161267.31;5031602;28;20037;-52
2022/04/30 05:28:38;;;;;;;25.17;20.27;;;;;;;2.79;100.00;161299.53;5033055;28;20025;-53
2022/04/30 05:31:05;;;;;;;25.40;17.25;;;;;;;2.92;100.00;161333.13;5031408;28;20420;-53
2022/04/30 05:33:35;;;;;;;21.05;16.90;;;;;;;3.08;100.00;161374.78;5033129;28;20033;-53
2022/04/30 05:36:01;;;;;;;23.10;16.10;;;;;;;3.20;100.00;161405.69;5033103;28;20030;-52
2022/04/30 05:38:26;;;;;;;24.73;16.48;;;;;;;3.35;100.00;161443.28;5030802;28;20128;-52
2022/04/30 05:40:52;;;;;;;23.60;18.25;;;;;;;3.46;100.00;161474.13;5032940;28;20055;-52
2022/04/30 05:43:17;;;;;;;20.92;17.67;;;;;;;3.55;100.00;161495.63;5031365;28;20041;-54
2022/04/30 05:45:42;;;;;;;24.02;16.08;;;;;;;3.65;100.00;161522.53;5032230;28;20021;-54
2022/04/30 05:48:08;;;;;;;30.42;15.77;;;;;;;3.75;100.00;161548.03;5031236;28;20037;-54
2022/04/30 05:50:34;;;;;;;34.72;19.00;;;;;;;3.88;100.00;161582.97;5032535;28;20361;-54
2022/04/30 05:52:59;;;;;;;20.92;17.20;;;;;;;3.95;100.00;161601.78;5030892;28;20496;-54
2022/04/30 05:55:24;;;;;;;22.23;15.82;;;;;;;4.08;100.00;161635.41;5031899;28;20037;-54
2022/04/30 05:57:50;;;;;;;37.55;16.85;;;;;;;4.22;100.00;161670.34;5031184;28;20038;-53
2022/04/30 06:00:16;;;;;;;28.17;18.17;;;;;;;4.29;100.00;161689.16;5032255;28;20353;-54
2022/04/30 06:02:42;;;;;;;27.65;16.60;;;;;;;4.40;100.00;161717.38;5030660;28;20053;-53
2022/04/30 06:05:08;;;;;;;22.13;15.75;;;;;;;4.59;100.00;161767.13;5032161;28;20013;-53
2022/04/30 06:07:33;;;;;;;25.75;15.05;;;;;;;4.70;100.00;161795.34;5029991;28;20531;-54
2022/04/30 06:09:59;;;;;;;26.33;17.65;;;;;;;4.80;100.00;161820.94;5031577;28;20030;-53
2022/04/30 06:12:24;;;;;;;21.23;16.83;;;;;;;4.93;100.00;161857.22;5030526;28;20084;-54
2022/04/30 06:14:50;;;;;;;21.08;15.10;;;;;;;5.00;100.00;161873.34;5031712;28;20037;-54
2022/04/30 06:17:15;;;;;;;21.38;15.38;;;;;;;5.12;100.00;161904.28;5030895;28;20045;-54
2022/04/30 06:19:40;;;;;;;23.40;14.23;;;;;;;5.20;100.00;161927.19;5031928;28;20029;-54
2022/04/30 06:22:05;;;;;;;22.35;15.43;;;;;;;5.32;100.00;161956.75;5030184;28;20037;-54
2022/04/30 06:24:31;;;;;;;18.13;14.95;;;;;;;5.40;100.00;161979.59;5031906;28;20030;-54
2022/04/30 06:26:56;;;;;;;21.65;13.40;;;;;;;5.45;100.00;161990.41;5030772;28;20041;-54
2022/04/30 06:29:22;;;;;;;19.67;15.77;;;;;;;5.59;100.00;162028.06;5031591;28;20029;-54
2022/04/30 06:31:50;;;;;;;20.95;13.20;;;;;;;5.82;100.00;162087.25;5030448;28;20044;-54
2022/04/30 06:34:16;;;;;;;19.48;15.15;;;;;;;5.93;100.00;162116.84;5032297;28;20100;-54
2022/04/30 06:36:41;;;;;;;18.33;13.07;;;;;;;6.11;100.00;162162.66;5029684;28;20034;-54
2022/04/30 06:39:07;;;;;;;15.23;12.82;;;;;;;6.25;100.00;162199.03;5031960;28;20040;-54
2022/04/30 06:41:33;;;;;;;23.98;13.88;;;;;;;6.51;100.00;162267.69;5030155;28;20040;-54
2022/04/30 06:43:58;;;;;;;17.55;14.45;;;;;;;6.71;100.00;162320.16;5031171;28;20025;-54
2022/04/30 06:46:23;;;;;;;20.02;13.13;;;;;;;6.90;100.00;162369.97;5030043;28;20091;-54
2022/04/30 06:48:49;;;;;;;24.67;14.07;;;;;;;7.13;100.00;162429.22;5031595;28;20021;-54
2022/04/30 06:51:14;;;;;;;13.88;10.60;;;;;;;7.39;100.00;162497.91;5030131;28;20400;-54
2022/04/30 06:59:11;;;;;;;20.83;10.73;;;;;;;8.51;100.00;162790.41;5030982;28;20063;-54
2022/04/30 07:01:44;;;;;;;17.88;10.90;;;;;;;9.14;100.00;162954.88;5020633;28;20050;-54
2022/04/30 07:04:11;;;;;;;12.20;9.05;;;;;;;10.08;100.00;163200.41;5012063;28;20029;-55
2022/04/30 07:06:37;;;;;;;16.65;8.38;;;;;;;10.51;100.00;163311.09;5008857;28;20049;-55
2022/04/30 07:09:05;;;;;;;8.25;7.45;;;;;;;10.74;100.00;163373.22;5011335;28;20026;-55
2022/04/30 07:11:31;;;;;;;8.75;6.57;;;;;;;10.87;100.00;163406.91;5009999;28;20130;-55
2022/04/30 07:13:56;;;;;;;12.30;8.60;;;;;;;11.06;100.00;163456.88;5011392;28;20030;-55
2022/04/30 07:16:22;;;;;;;7.97;6.65;;;;;;;11.11;100.00;163470.41;5010320;28;20033;-54
2022/04/30 07:18:47;;;;;;;8.02;7.10;;;;;;;10.99;100.00;163436.66;5011294;28;20025;-55
2022/04/30 07:21:13;;;;;;;9.70;7.95;;;;;;;11.14;100.00;163475.78;5009888;28;20037;-55
2022/04/30 07:23:38;;;;;;;9.35;7.70;;;;;;;10.99;100.00;163437.97;5010943;28;20452;-55
2022/04/30 07:26:03;;;;;;;10.15;7.90;;;;;;;11.39;100.00;163543.31;5010156;28;20092;-55
2022/04/30 07:28:35;;;;;;;11.30;6.97;;;;;;;11.54;100.00;163581.13;5010535;28;20489;-55
2022/04/30 07:31:02;;;;;;;14.15;8.10;;;;;;;11.63;100.00;163605.47;5010121;28;20044;-55
2022/04/30 07:33:27;;;;;;;7.53;6.53;;;;;;;11.70;100.00;163624.38;5010995;28;20500;-54
2022/04/30 07:35:54;;;;;;;10.52;5.70;;;;;;;12.10;100.00;163728.41;5010163;28;20038;-55
2022/04/30 07:38:19;;;;;;;11.52;5.90;;;;;;;12.01;100.00;163705.47;5011533;28;20366;-55
2022/04/30 07:40:45;;;;;;;17.38;7.13;;;;;;;12.33;100.00;163789.22;5009629;28;20041;-53
2022/04/30 07:43:10;;;;;;;6.88;5.22;;;;;;;12.32;100.00;163786.50;5010894;28;20461;-55
2022/04/30 07:45:36;;;;;;;12.30;6.22;;;;;;;12.13;100.00;163736.56;5009764;28;20072;-54
2022/04/30 07:48:02;;;;;;;16.02;6.43;;;;;;;11.78;100.00;163643.28;5011097;28;20026;-55
2022/04/30 07:50:31;;;;;;;9.73;4.57;;;;;;;11.40;100.00;163546.03;5010603;28;20076;-54
2022/04/30 07:52:56;;;;;;;15.65;5.10;;;;;;;10.71;100.00;163365.09;5029815;28;20045;-55
2022/04/30 07:55:22;;;;;;;9.95;6.20;;;;;;;10.37;100.00;163274.66;5030834;28;20433;-54
2022/04/30 07:57:48;;;;;;;6.65;5.05;;;;;;;10.68;100.00;163355.63;5029412;28;20053;-55
2022/04/30 08:00:13;;;;;;;8.68;5.55;;;;;;;11.02;100.00;163446.09;5030331;28;20018;-54
2022/04/30 08:02:38;;;;;;;5.93;5.25;;;;;;;11.07;100.00;163458.25;5028769;28;20112;-55
2022/04/30 08:05:05;;;;;;;9.10;6.35;;;;;;;11.40;100.00;163546.03;5030777;28;20021;-55
2022/04/30 08:07:30;;;;;;;9.63;5.70;;;;;;;11.18;100.00;163486.59;5028495;28;20132;-55
2022/04/30 08:09:56;;;;;;;8.45;5.13;;;;;;;10.98;100.00;163435.31;5030465;28;20366;-55
2022/04/30 08:12:21;;;;;;;6.82;4.25;;;;;;;10.86;100.00;163402.88;5029206;28;20060;-55
2022/04/30 08:14:48;;;;;;;12.48;5.53;;;;;;;10.64;100.00;163346.19;5030339;28;20377;-55
2022/04/30 08:17:13;;;;;;;5.40;3.70;;;;;;;10.92;100.00;163420.47;5030536;28;20034;-55
2022/04/30 08:19:39;;;;;;;6.30;4.07;;;;;;;11.25;100.00;163506.84;5034213;28;20028;-55
2022/04/30 08:22:05;;;;;;;7.53;4.45;;;;;;;11.45;100.00;163556.81;5032380;28;20046;-55
2022/04/30 08:24:30;;;;;;;6.97;3.92;;;;;;;11.81;100.00;163651.34;5033991;28;20029;-55
2022/04/30 08:26:56;;;;;;;8.18;4.75;;;;;;;11.91;100.00;163679.72;5032869;28;20045;-55
2022/04/30 08:29:22;;;;;;;6.53;4.45;;;;;;;12.35;100.00;163793.28;5033630;28;20022;-55
2022/04/30 08:31:47;;;;;;;4.28;3.50;;;;;;;12.75;100.00;163897.34;5032488;28;20536;-55
2022/04/30 08:34:12;;;;;;;7.05;3.10;;;;;;;12.88;100.00;163932.47;5033887;28;20021;-55
2022/04/30 08:36:38;;;;;;;4.28;3.90;;;;;;;12.75;100.00;163898.69;5032129;28;20037;-55
2022/04/30 08:39:03;;;;;;;5.97;4.60;;;;;;;12.83;100.00;163918.97;5034072;28;20040;-55
2022/04/30 08:41:28;;;;;;;6.45;3.72;;;;;;;13.00;100.00;163964.91;5032096;28;20044;-55
2022/04/30 08:43:54;;;;;;;5.10;4.53;;;;;;;13.24;100.00;164027.09;5033338;28;20033;-55
2022/04/30 08:46:20;;;;;;;5.68;3.30;;;;;;;13.06;100.00;163978.47;5032678;28;20038;-55
2022/04/30 08:48:46;;;;;;;8.25;3.90;;;;;;;13.36;100.00;164058.19;5033536;28;20083;-55
2022/04/30 08:51:14;;;;;;;3.90;2.85;;;;;;;13.39;100.00;164065.00;5032127;28;20064;-55
2022/04/30 08:53:40;;;;;;;4.85;3.42;;;;;;;13.15;100.00;164004.13;5033826;28;20021;-55
2022/04/30 08:56:07;;;;;;;3.42;2.83;;;;;;;12.82;100.00;163916.28;5032240;28;20049;-55
2022/04/30 08:58:32;;;;;;;3.40;3.08;;;;;;;12.56;100.00;163848.66;5032927;28;20025;-55
2022/04/30 09:01:03;;;;;;;5.63;3.22;;;;;;;12.43;97.89;163814.91;5031988;28;20046;-55
2022/04/30 09:03:36;;;;;;;6.10;3.35;;;;;;;12.14;100.00;163737.88;5033179;28;20480;-55
2022/04/30 09:06:04;;;;;;;10.32;3.45;;;;;;;11.73;100.00;163632.44;5031695;28;20036;-55
2022/04/30 09:08:29;;;;;;;3.38;3.08;;;;;;;11.93;100.00;163683.81;5033253;28;20026;-55
2022/04/30 09:11:07;;;;;;;7.88;2.80;;;;;;;12.37;100.00;163800.03;5032074;28;20060;-55
2022/04/30 09:13:42;;;;;;;2.63;2.42;;;;;;;12.94;98.76;163948.69;5032942;28;20059;-55
2022/04/30 09:16:18;;;;;;;4.88;3.20;;;;;;;13.29;94.29;164040.59;5032184;28;20408;-55
2022/04/30 09:18:44;;;;;;;2.80;2.60;;;;;;;14.12;95.82;164257.03;5033320;28;20080;-54
2022/04/30 09:21:14;;;;;;;1.90;1.67;;;;;;;13.99;81.61;164221.88;5031295;28;20041;-55
2022/04/30 09:23:39;;;;;;;3.47;2.42;;;;;;;14.63;80.52;164389.66;5033251;28;20071;-55
2022/04/30 09:26:05;;;;;;;3.70;2.35;;;;;;;15.49;82.64;164617.06;5031755;28;20493;-55
2022/04/30 09:28:38;;;;;;;2.53;2.33;;;;;;;15.44;77.13;164603.56;5031604;28;20370;-55
2022/04/30 09:31:11;;;;;;;7.88;3.10;;;;;;;15.50;76.10;164619.78;5031841;28;20041;-55
2022/04/30 09:33:38;;;;;;;3.92;1.80;;;;;;;15.30;73.05;164566.97;5032866;28;20056;-55
2022/04/30 09:38:53;;;;;;;2.88;1.77;;;;;;;14.45;71.45;164343.66;5033142;28;20103;-54
2022/04/30 09:41:24;;;;;;;4.57;1.77;;;;;;;14.49;74.46;164354.44;5031518;28;20057;-54
2022/04/30 09:44:06;;;;;;;10.60;2.20;;;;;;;14.69;69.56;164407.28;5032469;28;20022;-54
2022/04/30 09:46:35;;;;;;;2.20;1.80;;;;;;;15.03;72.07;164495.22;5031168;28;20034;-55
2022/04/30 09:54:29;;;;;;;4.45;1.88;;;;;;;15.93;70.41;164732.22;5032489;28;20059;-55
2022/04/30 09:56:58;;;;;;;1.70;1.60;;;;;;;15.57;65.60;164636.03;5030977;28;20500;-55
2022/04/30 09:59:25;;;;;;;1.67;1.58;;;;;;;15.02;67.33;164492.53;5032233;28;20030;-55
2022/04/30 10:01:53;;;;;;;3.63;1.95;;;;;;;14.65;69.97;164395.03;5030702;28;20420;-55
2022/04/30 10:04:18;;;;;;;2.78;2.33;;;;;;;14.67;67.52;164400.50;5032009;28;20021;-55
2022/04/30 10:06:51;;;;;;;7.53;2.10;;;;;;;15.41;70.39;164595.41;5030841;28;20493;-55
2022/04/30 10:09:29;;;;;;;5.82;2.03;;;;;;;15.19;69.54;164538.56;5032027;28;20496;-55
2022/04/30 10:12:26;;;;;;;7.55;2.35;;;;;;;15.31;66.10;164568.31;5030551;28;20488;-55
2022/04/30 10:15:05;;;;;;;2.78;2.25;;;;;;;16.41;65.69;164858.19;5032361;28;20029;-55
2022/04/30 10:17:36;;;;;;;2.97;1.60;;;;;;;16.12;63.61;164782.28;5030386;28;20063;-55
2022/04/30 10:20:07;;;;;;;2.38;2.15;;;;;;;15.23;66.11;164549.38;5031982;28;20037;-55
2022/04/30 10:22:33;;;;;;;2.92;2.30;;;;;;;15.20;66.64;164541.28;5030249;28;20563;-55
2022/04/30 10:24:59;;;;;;;6.85;2.88;;;;;;;14.95;68.92;164473.56;5031963;28;20034;-55
2022/04/30 10:27:37;;;;;;;5.22;2.17;;;;;;;14.58;69.48;164378.81;5029877;28;20465;-54
2022/04/30 10:30:05;;;;;;;4.25;2.60;;;;;;;14.21;72.66;164281.41;5031901;28;20032;-55
2022/04/30 10:32:32;;;;;;;2.90;2.58;;;;;;;14.27;73.23;164296.28;5030562;28;20408;-55
2022/04/30 10:34:59;;;;;;;5.43;2.53;;;;;;;15.11;69.03;164516.91;5031657;28;20021;-54
2022/04/30 10:37:29;;;;;;;4.53;3.10;;;;;;;15.91;74.59;164726.81;5030098;28;20041;-55
2022/04/30 10:40:02;;;;;;;7.45;4.50;;;;;;;15.44;76.42;164603.56;5031643;28;20032;-55
2022/04/30 10:42:30;;;;;;;4.78;4.03;;;;;;;14.84;78.56;164446.53;5029596;28;20505;-55
2022/04/30 10:44:55;;;;;;;3.45;3.15;;;;;;;14.45;81.21;164343.66;5031427;28;20039;-55
2022/04/30 10:47:21;;;;;;;8.77;3.60;;;;;;;14.17;86.77;164270.59;5030059;28;20041;-55
2022/04/30 10:49:46;;;;;;;6.00;4.43;;;;;;;13.89;84.82;164197.53;5030747;28;20079;-54
2022/04/30 10:52:21;;;;;;;4.40;4.00;;;;;;;13.58;88.22;164116.41;5030001;28;20039;-55
2022/04/30 10:54:48;;;;;;;7.03;3.63;;;;;;;13.73;83.62;164154.28;5031549;28;20095;-55
2022/04/30 10:57:14;;;;;;;4.85;3.78;;;;;;;13.43;88.08;164075.84;5029626;28;20033;-55
2022/04/30 10:59:39;;;;;;;5.03;3.80;;;;;;;13.33;91.19;164051.44;5030969;28;20021;-55
2022/04/30 11:02:05;;;;;;;6.05;3.75;;;;;;;13.57;86.33;164113.72;5029833;28;20052;-54
2022/04/30 11:04:30;;;;;;;4.35;3.00;;;;;;;13.67;86.93;164138.00;5030997;28;20036;-54
2022/04/30 11:06:58;;;;;;;5.18;2.70;;;;;;;13.36;82.55;164056.88;5029693;28;20049;-55
2022/04/30 11:09:24;;;;;;;1.98;1.88;;;;;;;13.24;73.81;164027.09;5030995;28;20048;-55
2022/04/30 11:11:50;;;;;;;2.80;2.55;;;;;;;13.19;80.34;164013.59;5029276;28;20099;-55
2022/04/30 11:14:19;;;;;;;6.50;3.60;;;;;;;13.11;78.35;163991.97;5031336;28;20438;-55
2022/04/30 11:16:46;;;;;;;3.60;2.70;;;;;;;13.17;78.50;164008.19;5029678;28;20065;-55
2022/04/30 11:19:14;;;;;;;3.70;2.92;;;;;;;13.28;74.34;164037.94;5030825;28;20025;-55
2022/04/30 11:21:41;;;;;;;4.72;3.45;;;;;;;13.54;79.00;164105.56;5029401;28;20041;-55
2022/04/30 11:24:07;;;;;;;6.35;3.42;;;;;;;14.51;79.69;164359.88;5031217;28;20021;-55
2022/04/30 11:26:37;;;;;;;6.03;3.25;;;;;;;14.72;81.55;164414.03;5029023;28;20038;-55
2022/04/30 11:29:07;;;;;;;10.05;3.80;;;;;;;15.54;91.86;164630.59;5030995;28;20029;-54
2022/04/30 11:31:32;;;;;;;8.13;3.45;;;;;;;15.82;83.65;164703.69;5029258;28;20044;-55
2022/04/30 11:34:07;;;;;;;8.23;5.40;;;;;;;15.16;95.31;164530.41;5030598;28;20025;-55
2022/04/30 11:36:42;;;;;;;10.00;7.03;;;;;;;14.54;99.41;164366.63;5029287;28;20362;-55
2022/04/30 11:39:10;;;;;;;12.68;5.72;;;;;;;14.03;100.00;164234.06;5031068;28;20488;-55
2022/04/30 11:41:55;;;;;;;7.15;4.82;;;;;;;13.32;100.00;164047.41;5029072;28;20026;-54
2022/04/30 11:44:22;;;;;;;12.45;5.93;;;;;;;12.95;100.00;163951.41;5030664;28;20115;-55
2022/04/30 11:46:51;;;;;;;9.55;6.70;;;;;;;12.77;100.00;163902.75;5029432;28;20037;-55